Time;durP1;ratioP1;P1;durP2;ratioP2;P2;SDS_P1;SDS_P2;PMS_P1;PMS_P2;Temp;Humidity;BMP_temperature;BMP_pressure;BME280_temperature;BME280_humidity;BME280_pressure;Samples;Min_cycle;Max_cycle;Signal;HPM_P1;HPM_P2
2022/11/04 00:01:33;;;;;;;;;;;;;;;8.73;100.00;99584.02;1681069;84;21131;-83
2022/11/04 00:03:59;;;;;;;;;;;;;;;8.74;100.00;99584.41;1680975;85;20235;-84
2022/11/04 00:06:25;;;;;;;;;;;;;;;8.73;100.00;99577.47;1680863;84;20663;-82
2022/11/04 00:08:54;;;;;;;;;;;;;;;8.73;100.00;99587.95;1680866;85;20202;-85
2022/11/04 00:13:52;;;;;;;;;;;;;;;8.72;100.00;99586.22;1632938;85;21137;-84
2022/11/04 00:19:05;;;;;;;;;;;;;;;8.70;100.00;99584.95;1680928;84;20168;-83
2022/11/04 00:28:41;;;;;;;;;;;;;;;8.65;100.00;99582.90;1680991;85;20218;-81
2022/11/04 00:29:41;;;;;;;;;;;;;;;8.58;100.00;99584.42;1680984;85;20195;-83
2022/11/04 00:34:54;;;;;;;;;;;;;;;8.54;100.00;99583.19;1685454;82;20148;-76
2022/11/04 00:37:20;;;;;;;;;;;;;;;8.57;100.00;99581.37;1684063;84;20261;-84
2022/11/04 00:39:46;;;;;;;;;;;;;;;8.54;100.00;99580.56;1681205;85;21121;-81
2022/11/04 00:42:13;;;;;;;;;;;;;;;8.55;100.00;99582.27;1680814;84;20120;-83
2022/11/04 00:44:39;;;;;;;;;;;;;;;8.53;100.00;99577.98;1681152;85;20099;-82
2022/11/04 00:47:05;;;;;;;;;;;;;;;8.49;100.00;99575.88;1680807;84;20225;-82
2022/11/04 00:49:31;;;;;;;;;;;;;;;8.48;100.00;99582.02;1681151;85;20275;-83
2022/11/04 00:51:58;;;;;;;;;;;;;;;8.47;100.00;99573.76;1680802;84;21148;-81
2022/11/04 00:54:24;;;;;;;;;;;;;;;8.48;100.00;99580.70;1680685;85;20175;-81
2022/11/04 00:56:52;;;;;;;;;;;;;;;8.47;100.00;99576.80;1680875;85;20227;-83
2022/11/04 00:59:19;;;;;;;;;;;;;;;8.44;100.00;99576.45;1680833;85;20136;-83
2022/11/04 01:01:46;;;;;;;;;;;;;;;8.46;100.00;99576.41;1680840;85;20231;-82
2022/11/04 01:04:12;;;;;;;;;;;;;;;8.43;100.00;99573.41;1680996;85;22356;-83
2022/11/04 01:06:39;;;;;;;;;;;;;;;8.40;100.00;99572.13;1680760;85;20718;-82
2022/11/04 01:09:10;;;;;;;;;;;;;;;8.36;100.00;99569.19;1680911;84;20223;-82
2022/11/04 01:11:36;;;;;;;;;;;;;;;8.32;100.00;99563.59;1680680;85;20840;-83
2022/11/04 01:14:03;;;;;;;;;;;;;;;8.32;100.00;99568.84;1680820;85;20282;-81
2022/11/04 01:16:30;;;;;;;;;;;;;;;8.31;100.00;99573.23;1680892;85;21142;-82
2022/11/04 01:18:57;;;;;;;;;;;;;;;8.30;100.00;99570.64;1680739;85;20261;-82
2022/11/04 01:21:24;;;;;;;;;;;;;;;8.29;100.00;99565.01;1680857;85;20242;-84
2022/11/04 01:23:50;;;;;;;;;;;;;;;8.27;100.00;99558.48;1681015;85;20194;-83
2022/11/04 01:26:19;;;;;;;;;;;;;;;8.23;100.00;99555.97;1681053;85;20207;-84
2022/11/04 01:28:45;;;;;;;;;;;;;;;8.22;100.00;99565.60;1681040;85;21176;-84
2022/11/04 01:31:14;;;;;;;;;;;;;;;8.19;100.00;99561.28;1680884;85;20231;-83
2022/11/04 01:33:41;;;;;;;;;;;;;;;8.22;100.00;99556.86;1680889;84;20219;-83
2022/11/04 01:36:08;;;;;;;;;;;;;;;8.23;100.00;99562.52;1680957;84;20214;-83
2022/11/04 01:38:34;;;;;;;;;;;;;;;8.22;100.00;99564.72;1680764;84;20234;-84
2022/11/04 01:41:01;;;;;;;;;;;;;;;8.19;100.00;99560.43;1681001;85;21778;-81
2022/11/04 01:43:49;;;;;;;;;;;;;;;8.19;100.00;99565.21;1680549;84;20207;-81
2022/11/04 01:46:29;;;;;;;;;;;;;;;8.19;100.00;99566.98;1680720;85;20442;-83
2022/11/04 01:49:00;;;;;;;;;;;;;;;8.15;100.00;99570.12;1668691;85;20301;-80
2022/11/04 01:51:26;;;;;;;;;;;;;;;8.10;100.00;99571.11;1665033;85;20131;-83
2022/11/04 01:53:52;;;;;;;;;;;;;;;8.07;100.00;99568.13;1680938;84;21152;-82
2022/11/04 01:56:19;;;;;;;;;;;;;;;8.05;100.00;99563.35;1680956;85;20274;-82
2022/11/04 01:58:50;;;;;;;;;;;;;;;8.05;100.00;99573.84;1660053;85;20214;-80
2022/11/04 02:01:16;;;;;;;;;;;;;;;8.04;100.00;99571.28;1680360;85;20146;-79
2022/11/04 02:03:52;;;;;;;;;;;;;;;8.01;100.00;99566.95;1680844;84;20227;-82
2022/11/04 02:06:19;;;;;;;;;;;;;;;8.04;100.00;99566.05;1680718;84;21571;-79
2022/11/04 02:08:46;;;;;;;;;;;;;;;8.06;100.00;99559.84;1659165;85;20136;-81
2022/11/04 02:12:48;;;;;;;;;;;;;;;8.05;100.00;99558.57;1681144;85;20189;-80
2022/11/04 02:13:41;;;;;;;;;;;;;;;8.03;100.00;99555.98;1677721;85;20140;-80
2022/11/04 02:16:22;;;;;;;;;;;;;;;8.03;100.00;99554.67;1680888;84;20147;-81
2022/11/04 02:18:59;;;;;;;;;;;;;;;8.02;100.00;99555.59;1681070;85;21895;-82
2022/11/04 02:21:52;;;;;;;;;;;;;;;8.03;100.00;99562.53;1680567;85;20262;-82
2022/11/04 02:24:58;;;;;;;;;;;;;;;8.03;100.00;99565.16;1680921;85;20226;-83
2022/11/04 02:27:34;;;;;;;;;;;;;;;8.03;100.00;99565.16;1598938;89;20548;-82
2022/11/04 02:30:18;;;;;;;;;;;;;;;8.02;100.00;99559.52;1614748;88;20514;-83
2022/11/04 02:32:54;;;;;;;;;;;;;;;8.03;100.00;99559.06;1657100;84;21235;-81
2022/11/04 02:35:40;;;;;;;;;;;;;;;8.02;100.00;99555.59;1695129;84;20163;-82
2022/11/04 02:38:30;;;;;;;;;;;;;;;8.02;100.00;99552.09;1695660;84;20257;-82
2022/11/04 02:41:00;;;;;;;;;;;;;;;8.00;100.00;99546.88;1695430;84;20654;-83
2022/11/04 02:43:48;;;;;;;;;;;;;;;7.96;100.00;99548.72;1695469;84;20201;-83
2022/11/04 02:46:26;;;;;;;;;;;;;;;7.92;100.00;99543.61;1695516;84;20588;-84
2022/11/04 02:49:04;;;;;;;;;;;;;;;7.91;100.00;99541.88;1691941;84;20226;-85
2022/11/04 02:51:47;;;;;;;;;;;;;;;7.88;100.00;99537.55;1695458;83;20194;-83
2022/11/04 02:54:16;;;;;;;;;;;;;;;7.89;100.00;99534.51;1695659;84;20234;-82
2022/11/04 02:56:45;;;;;;;;;;;;;;;7.87;100.00;99541.52;1695266;84;20920;-81
2022/11/04 02:59:18;;;;;;;;;;;;;;;7.86;100.00;99546.36;1695519;84;21264;-82
2022/11/04 03:01:44;;;;;;;;;;;;;;;7.86;100.00;99551.60;1695239;84;20186;-81
2022/11/04 03:04:15;;;;;;;;;;;;;;;7.83;100.00;99543.34;1695601;84;20193;-82
2022/11/04 03:06:43;;;;;;;;;;;;;;;7.80;100.00;99548.65;1695213;84;20162;-82
2022/11/04 03:09:10;;;;;;;;;;;;;;;7.76;100.00;99550.94;1695702;84;20147;-82
2022/11/04 03:11:36;;;;;;;;;;;;;;;7.75;100.00;99554.44;1695229;84;21208;-82
2022/11/04 03:14:07;;;;;;;;;;;;;;;7.72;100.00;99560.63;1695401;84;20143;-83
2022/11/04 03:16:40;;;;;;;;;;;;;;;7.70;100.00;99551.95;1695307;84;20225;-83
2022/11/04 03:19:22;;;;;;;;;;;;;;;7.67;100.00;99554.63;1695454;84;20254;-84
2022/11/04 03:21:58;;;;;;;;;;;;;;;7.64;100.00;99549.45;1695314;84;20242;-84
2022/11/04 03:24:25;;;;;;;;;;;;;;;7.63;100.00;99552.53;1695465;84;21657;-84
2022/11/04 03:26:59;;;;;;;;;;;;;;;7.63;100.00;99550.34;1690952;80;20159;-78
2022/11/04 03:29:30;;;;;;;;;;;;;;;7.63;100.00;99555.58;1691320;84;20179;-78
2022/11/04 03:32:20;;;;;;;;;;;;;;;7.61;100.00;99549.52;1691629;80;20214;-84
2022/11/04 03:34:46;;;;;;;;;;;;;;;7.62;100.00;99551.25;1688238;84;20187;-81
2022/11/04 03:37:13;;;;;;;;;;;;;;;7.61;100.00;99555.61;1688887;85;21805;-81
2022/11/04 03:39:40;;;;;;;;;;;;;;;7.60;100.00;99563.07;1688311;84;20162;-84
2022/11/04 03:42:18;;;;;;;;;;;;;;;7.58;100.00;99548.27;1688471;85;20238;-83
2022/11/04 03:44:37;;;;;;;;;;;;;;;7.57;100.00;99550.04;1686086;85;20226;-83
2022/11/04 03:47:03;;;;;;;;;;;;;;;7.57;100.00;99550.50;1687893;85;20176;-83
2022/11/04 03:49:31;;;;;;;;;;;;;;;7.57;100.00;99550.50;1687710;84;20243;-82
2022/11/04 03:51:58;;;;;;;;;;;;;;;7.57;100.00;99550.50;1687718;85;20187;-82
2022/11/04 03:54:24;;;;;;;;;;;;;;;7.57;100.00;99550.50;1687715;84;20206;-83
2022/11/04 03:56:54;;;;;;;;;;;;;;;7.58;100.00;99545.23;1687691;84;20238;-82
2022/11/04 03:59:33;;;;;;;;;;;;;;;7.64;100.00;99540.30;1687752;84;20206;-84
2022/11/04 04:02:20;;;;;;;;;;;;;;;7.70;100.00;99545.83;1687528;84;21152;-85
2022/11/04 04:04:58;;;;;;;;;;;;;;;7.73;100.00;99542.72;1687834;85;20565;-84
2022/11/04 04:07:31;;;;;;;;;;;;;;;7.75;100.00;99547.47;1687325;85;20210;-85
2022/11/04 04:10:00;;;;;;;;;;;;;;;7.75;100.00;99545.28;1687719;85;20631;-83
2022/11/04 04:12:36;;;;;;;;;;;;;;;7.78;100.00;99542.59;1687670;84;20218;-85
2022/11/04 04:15:08;;;;;;;;;;;;;;;7.76;100.00;99545.24;1687770;85;21100;-84
2022/11/04 04:17:37;;;;;;;;;;;;;;;7.74;100.00;99540.50;1687559;85;20171;-83
2022/11/04 04:20:11;;;;;;;;;;;;;;;7.75;100.00;99551.83;1687852;85;20199;-84
2022/11/04 04:22:49;;;;;;;;;;;;;;;7.74;100.00;99542.27;1687741;85;20180;-85
2022/11/04 04:28:02;;;;;;;;;;;;;;;7.72;100.00;99555.39;1667840;85;21781;-85
2022/11/04 04:30:28;;;;;;;;;;;;;;;7.71;100.00;99556.27;1664132;85;20223;-85
2022/11/04 04:32:58;;;;;;;;;;;;;;;7.72;100.00;99559.31;1687581;85;20198;-84
2022/11/04 04:35:41;;;;;;;;;;;;;;;7.69;100.00;99556.77;1687627;85;20214;-84
2022/11/04 04:46:39;;;;;;;;;;;;;;;7.75;100.00;99558.37;1687820;85;20234;-85
2022/11/04 04:49:06;;;;;;;;;;;;;;;7.77;100.00;99553.53;1687562;85;20194;-84
2022/11/04 04:51:35;;;;;;;;;;;;;;;7.79;100.00;99562.20;1687705;85;20226;-85
2022/11/04 04:54:01;;;;;;;;;;;;;;;7.79;100.00;99557.42;1687487;85;21086;-83
2022/11/04 04:56:28;;;;;;;;;;;;;;;7.78;100.00;99559.19;1687504;85;20140;-85
2022/11/04 04:58:54;;;;;;;;;;;;;;;7.75;100.00;99564.49;1687437;85;20230;-84
2022/11/04 05:01:21;;;;;;;;;;;;;;;7.73;100.00;99558.44;1687560;85;20434;-83
2022/11/04 05:03:47;;;;;;;;;;;;;;;7.74;100.00;99560.14;1688085;85;20167;-81
2022/11/04 05:06:26;;;;;;;;;;;;;;;7.71;100.00;99560.20;1687604;85;21144;-83
2022/11/04 05:08:53;;;;;;;;;;;;;;;7.71;100.00;99564.13;1687421;85;20570;-85
2022/11/04 05:11:19;;;;;;;;;;;;;;;7.72;100.00;99564.56;1687481;85;20160;-86
2022/11/04 05:13:46;;;;;;;;;;;;;;;7.73;100.00;99565.41;1687722;85;20210;-84
2022/11/04 05:16:12;;;;;;;;;;;;;;;7.72;100.00;99567.17;1687479;85;20210;-85
2022/11/04 05:18:38;;;;;;;;;;;;;;;7.70;100.00;99566.36;1687622;85;21115;-85
2022/11/04 05:21:06;;;;;;;;;;;;;;;7.66;100.00;99560.75;1687490;85;20234;-85
2022/11/04 05:23:33;;;;;;;;;;;;;;;7.64;100.00;99570.41;1687821;85;20250;-83
2022/11/04 05:26:00;;;;;;;;;;;;;;;7.64;100.00;99574.34;1687300;84;20225;-84
2022/11/04 05:28:26;;;;;;;;;;;;;;;7.63;100.00;99577.84;1693519;84;20218;-84
2022/11/04 05:30:53;;;;;;;;;;;;;;;7.62;100.00;99582.68;1693484;84;21142;-84
2022/11/04 05:33:19;;;;;;;;;;;;;;;7.59;100.00;99582.73;1693450;84;20214;-84
2022/11/04 05:35:45;;;;;;;;;;;;;;;7.58;100.00;99583.63;1693686;84;20138;-81
2022/11/04 05:38:12;;;;;;;;;;;;;;;7.62;100.00;99589.22;1693561;84;20250;-85
2022/11/04 05:40:38;;;;;;;;;;;;;;;7.60;100.00;99589.71;1693549;84;20210;-85
2022/11/04 05:43:04;;;;;;;;;;;;;;;7.60;100.00;99594.49;1693676;84;21139;-84
2022/11/04 05:45:31;;;;;;;;;;;;;;;7.58;100.00;99599.33;1693709;84;20143;-83
2022/11/04 05:48:00;;;;;;;;;;;;;;;7.57;100.00;99597.63;1693484;84;20211;-82
2022/11/04 05:50:28;;;;;;;;;;;;;;;7.55;100.00;99596.80;1693576;84;20140;-84
2022/11/04 05:52:57;;;;;;;;;;;;;;;7.55;100.00;99607.28;1693442;83;20197;-83
2022/11/04 05:55:23;;;;;;;;;;;;;;;7.51;100.00;99606.91;1693555;84;22296;-84
2022/11/04 05:57:49;;;;;;;;;;;;;;;7.51;100.00;99602.98;1693584;84;20618;-84
2022/11/04 06:00:16;;;;;;;;;;;;;;;7.52;100.00;99612.11;1693736;84;20136;-84
2022/11/04 06:02:42;;;;;;;;;;;;;;;7.53;100.00;99610.34;1693778;83;20511;-85
2022/11/04 06:05:08;;;;;;;;;;;;;;;7.53;100.00;99608.62;1693641;84;20230;-84
2022/11/04 06:07:35;;;;;;;;;;;;;;;7.56;100.00;99607.67;1693665;84;21111;-80
2022/11/04 06:10:01;;;;;;;;;;;;;;;7.60;100.00;99608.05;1693512;84;20266;-85
2022/11/04 06:12:27;;;;;;;;;;;;;;;7.65;100.00;99611.42;1693596;84;20225;-84
2022/11/04 06:14:55;;;;;;;;;;;;;;;7.68;100.00;99611.33;1693433;84;20254;-84
2022/11/04 06:17:21;;;;;;;;;;;;;;;7.71;100.00;99609.96;1693382;84;20958;-86
2022/11/04 06:19:48;;;;;;;;;;;;;;;7.70;100.00;99603.02;1693287;84;21201;-84
2022/11/04 06:22:15;;;;;;;;;;;;;;;7.70;100.00;99601.71;1693644;84;20206;-82
2022/11/04 06:24:42;;;;;;;;;;;;;;;7.71;100.00;99604.73;1693528;84;20545;-85
2022/11/04 06:27:10;;;;;;;;;;;;;;;7.73;100.00;99606.89;1693399;84;20258;-84
2022/11/04 06:29:38;;;;;;;;;;;;;;;7.75;100.00;99599.85;1693397;84;20198;-80
2022/11/04 06:32:07;;;;;;;;;;;;;;;7.77;100.00;99605.91;1693755;84;22268;-84
2022/11/04 06:34:33;;;;;;;;;;;;;;;7.83;100.00;99602.74;1693143;84;20194;-85
2022/11/04 06:36:59;;;;;;;;;;;;;;;7.85;100.00;99606.19;1693429;84;20226;-84
2022/11/04 06:39:26;;;;;;;;;;;;;;;7.85;100.00;99604.87;1693398;84;20206;-83
2022/11/04 06:41:53;;;;;;;;;;;;;;;7.87;100.00;99609.63;1693531;84;20258;-83
2022/11/04 06:44:19;;;;;;;;;;;;;;;7.88;100.00;99606.13;1693484;84;21807;-83
2022/11/04 06:46:47;;;;;;;;;;;;;;;7.91;100.00;99607.38;1693315;84;20214;-82
2022/11/04 06:49:18;;;;;;;;;;;;;;;7.93;100.00;99613.43;1693696;84;20925;-82
2022/11/04 06:51:47;;;;;;;;;;;;;;;7.96;100.00;99610.75;1693503;84;20219;-84
2022/11/04 06:54:13;;;;;;;;;;;;;;;8.01;100.00;99606.27;1693373;84;20237;-84
2022/11/04 06:56:40;;;;;;;;;;;;;;;8.05;100.00;99597.87;1693443;84;21212;-83
2022/11/04 06:59:07;;;;;;;;;;;;;;;8.08;100.00;99607.84;1693353;84;20527;-83
2022/11/04 07:01:35;;;;;;;;;;;;;;;8.09;100.00;99603.02;1693250;84;20161;-82
2022/11/04 07:04:02;;;;;;;;;;;;;;;8.10;100.00;99600.83;1693392;84;20997;-81
2022/11/04 07:06:28;;;;;;;;;;;;;;;8.11;100.00;99599.91;1693502;84;20956;-82
2022/11/04 07:08:59;;;;;;;;;;;;;;;8.15;100.00;99606.82;1693286;83;21132;-83
2022/11/04 07:11:25;;;;;;;;;;;;;;;8.14;100.00;99610.78;1693737;84;20210;-83
2022/11/04 07:13:52;;;;;;;;;;;;;;;8.10;100.00;99613.93;1693362;84;20217;-81
2022/11/04 07:16:18;;;;;;;;;;;;;;;8.07;100.00;99606.13;1693470;84;20267;-82
2022/11/04 07:18:44;;;;;;;;;;;;;;;8.04;100.00;99614.06;1693588;84;20227;-83
2022/11/04 07:21:11;;;;;;;;;;;;;;;8.01;100.00;99608.88;1693417;84;21147;-84
2022/11/04 07:23:38;;;;;;;;;;;;;;;8.00;100.00;99612.39;1693408;84;20206;-85
2022/11/04 07:26:06;;;;;;;;;;;;;;;7.99;100.00;99605.44;1693318;84;21012;-83
2022/11/04 07:28:33;;;;;;;;;;;;;;;8.02;100.00;99605.80;1688188;84;20948;-83
2022/11/04 07:31:00;;;;;;;;;;;;;;;8.03;100.00;99605.77;1687450;85;20222;-83
2022/11/04 07:33:26;;;;;;;;;;;;;;;8.07;100.00;99603.52;1687661;85;21120;-85
2022/11/04 07:35:53;;;;;;;;;;;;;;;8.14;100.00;99605.08;1687302;85;20171;-84
2022/11/04 07:38:20;;;;;;;;;;;;;;;8.21;100.00;99597.09;1687332;85;20206;-83
2022/11/04 07:40:47;;;;;;;;;;;;;;;8.22;100.00;99601.41;1687468;85;20661;-84
2022/11/04 07:43:14;;;;;;;;;;;;;;;8.21;100.00;99602.33;1687757;85;20235;-84
2022/11/04 07:45:40;;;;;;;;;;;;;;;8.17;100.00;99599.78;1687467;85;21150;-77
2022/11/04 07:48:06;;;;;;;;;;;;;;;8.15;100.00;99601.58;1687507;85;20222;-84
2022/11/04 07:50:33;;;;;;;;;;;;;;;8.12;100.00;99602.95;1687643;85;20211;-84
2022/11/04 07:53:00;;;;;;;;;;;;;;;8.11;100.00;99599.91;1687440;85;20239;-84
2022/11/04 07:55:27;;;;;;;;;;;;;;;8.10;100.00;99599.52;1687655;85;20203;-83
2022/11/04 07:57:54;;;;;;;;;;;;;;;8.13;100.00;99592.87;1687448;85;21107;-83
2022/11/04 08:00:21;;;;;;;;;;;;;;;8.15;100.00;99593.72;1687427;85;20186;-84
2022/11/04 08:02:48;;;;;;;;;;;;;;;8.17;100.00;99587.98;1687522;85;20483;-83
2022/11/04 08:05:15;;;;;;;;;;;;;;;8.21;100.00;99587.92;1687569;85;20543;-82
2022/11/04 08:07:41;;;;;;;;;;;;;;;8.25;100.00;99583.00;1687721;85;20172;-83
2022/11/04 08:10:08;;;;;;;;;;;;;;;8.26;100.00;99597.84;1687809;85;21920;-83
2022/11/04 08:12:37;;;;;;;;;;;;;;;8.26;100.00;99596.07;1687520;85;20444;-82
2022/11/04 08:15:04;;;;;;;;;;;;;;;8.27;100.00;99598.23;1687515;85;20159;-84
2022/11/04 08:17:32;;;;;;;;;;;;;;;8.29;100.00;99604.33;1687671;85;20474;-81
2022/11/04 08:19:58;;;;;;;;;;;;;;;8.32;100.00;99602.91;1687650;85;20202;-81
2022/11/04 08:22:25;;;;;;;;;;;;;;;8.31;100.00;99598.13;1687844;85;21613;-84
2022/11/04 08:24:52;;;;;;;;;;;;;;;8.30;100.00;99599.02;1687381;85;20442;-82
2022/11/04 08:27:18;;;;;;;;;;;;;;;8.34;100.00;99593.28;1689330;84;20168;-80
2022/11/04 08:29:44;;;;;;;;;;;;;;;8.35;100.00;99603.73;1697124;83;20356;-78
2022/11/04 08:32:11;;;;;;;;;;;;;;;8.36;100.00;99604.58;1697598;83;20136;-78
2022/11/04 08:34:38;;;;;;;;;;;;;;;8.33;100.00;99605.96;1696716;83;21149;-84
2022/11/04 08:37:05;;;;;;;;;;;;;;;8.32;100.00;99613.41;1693727;84;20155;-83
2022/11/04 08:39:32;;;;;;;;;;;;;;;8.29;100.00;99611.73;1693729;84;20154;-81
2022/11/04 08:41:58;;;;;;;;;;;;;;;8.28;100.00;99606.52;1694644;84;21507;-84
2022/11/04 08:44:25;;;;;;;;;;;;;;;8.29;100.00;99603.02;1694144;84;20669;-83
2022/11/04 08:46:52;;;;;;;;;;;;;;;8.27;100.00;99596.92;1693454;84;21066;-84
2022/11/04 08:49:19;;;;;;;;;;;;;;;8.28;100.00;99598.66;1693516;83;20226;-83
2022/11/04 08:51:55;;;;;;;;;;;;;;;8.28;100.00;99600.82;1693547;83;20201;-84
2022/11/04 08:54:13;;;;;;;;;;;;;;;8.30;100.00;99602.09;1692159;83;20227;-83
2022/11/04 08:56:40;;;;;;;;;;;;;;;8.32;100.00;99597.67;1693656;84;20241;-85
2022/11/04 08:59:07;;;;;;;;;;;;;;;8.37;100.00;99598.42;1693424;83;21617;-84
2022/11/04 09:01:35;;;;;;;;;;;;;;;8.37;100.00;99601.04;1693547;84;20234;-83
2022/11/04 09:04:03;;;;;;;;;;;;;;;8.34;100.00;99599.83;1693570;84;20202;-85
2022/11/04 09:06:32;;;;;;;;;;;;;;;8.27;100.00;99597.81;1693623;84;21491;-84
2022/11/04 09:09:02;;;;;;;;;;;;;;;8.25;100.00;99598.27;1693622;84;20206;-85
2022/11/04 09:11:26;;;;;;;;;;;;;;;8.25;100.00;99594.80;1693329;84;21070;-84
2022/11/04 09:13:52;;;;;;;;;;;;;;;8.25;100.00;99600.03;1693429;84;20226;-84
2022/11/04 09:16:19;;;;;;;;;;;;;;;8.25;100.00;99590.86;1693430;84;20214;-82
2022/11/04 09:18:46;;;;;;;;;;;;;;;8.27;100.00;99598.23;1693303;84;20249;-84
2022/11/04 09:21:13;;;;;;;;;;;;;;;8.28;100.00;99598.66;1693505;84;20239;-84
2022/11/04 09:23:41;;;;;;;;;;;;;;;8.30;100.00;99599.48;1693571;84;21032;-84
2022/11/04 09:26:11;;;;;;;;;;;;;;;8.31;100.00;99595.97;1693442;84;20194;-84
2022/11/04 09:28:39;;;;;;;;;;;;;;;8.33;100.00;99599.41;1689766;84;20541;-84
2022/11/04 09:31:11;;;;;;;;;;;;;;;8.37;100.00;99593.17;1687683;85;20210;-85
2022/11/04 09:33:38;;;;;;;;;;;;;;;8.37;100.00;99595.38;1687710;85;20242;-83
2022/11/04 09:36:07;;;;;;;;;;;;;;;8.38;100.00;99601.47;1687560;85;20167;-83
2022/11/04 09:38:35;;;;;;;;;;;;;;;8.35;100.00;99597.60;1687578;85;20218;-83
2022/11/04 09:41:10;;;;;;;;;;;;;;;8.33;100.00;99596.78;1687668;85;20191;-83
2022/11/04 09:44:11;;;;;;;;;;;;;;;8.30;100.00;99588.98;1686304;85;20242;-84
2022/11/04 09:46:37;;;;;;;;;;;;;;;8.29;100.00;99595.15;1687460;84;20238;-85
2022/11/04 09:49:05;;;;;;;;;;;;;;;8.30;100.00;99592.46;1687422;85;21143;-85
2022/11/04 09:51:32;;;;;;;;;;;;;;;8.34;100.00;99586.72;1688044;85;20606;-85
2022/11/04 09:54:00;;;;;;;;;;;;;;;8.37;100.00;99590.13;1687464;85;20284;-84
2022/11/04 09:56:34;;;;;;;;;;;;;;;8.37;100.00;99590.55;1687548;85;20238;-84
2022/11/04 09:59:03;;;;;;;;;;;;;;;8.33;100.00;99588.92;1687841;85;20206;-84
2022/11/04 10:01:34;;;;;;;;;;;;;;;8.34;100.00;99588.03;1687605;85;21387;-84
2022/11/04 10:04:07;;;;;;;;;;;;;;;8.33;100.00;99595.02;1687532;85;20230;-83
2022/11/04 10:07:05;;;;;;;;;;;;;;;8.32;100.00;99592.43;1687185;85;20163;-83
2022/11/04 10:09:38;;;;;;;;;;;;;;;8.28;100.00;99594.73;1687840;85;20200;-83
2022/11/04 10:12:31;;;;;;;;;;;;;;;8.26;100.00;99597.84;1671279;85;20173;-83
2022/11/04 10:15:09;;;;;;;;;;;;;;;8.19;100.00;99594.05;1687627;85;20995;-81
2022/11/04 10:17:55;;;;;;;;;;;;;;;8.13;100.00;99590.24;1687405;85;20198;-84
2022/11/04 10:20:37;;;;;;;;;;;;;;;8.07;100.00;99594.34;1687529;85;20229;-84
2022/11/04 10:23:20;;;;;;;;;;;;;;;8.06;100.00;99591.30;1687282;85;20230;-87
2022/11/04 10:25:54;;;;;;;;;;;;;;;8.03;100.00;99590.05;1687540;85;20187;-82
2022/11/04 10:28:21;;;;;;;;;;;;;;;8.01;100.00;99593.16;1689841;84;21761;-84
2022/11/04 10:30:48;;;;;;;;;;;;;;;7.98;100.00;99589.30;1693326;84;20195;-82
2022/11/04 10:33:27;;;;;;;;;;;;;;;7.96;100.00;99589.33;1693317;84;20147;-81
2022/11/04 10:35:58;;;;;;;;;;;;;;;7.95;100.00;99591.55;1693559;83;20223;-84
2022/11/04 10:38:28;;;;;;;;;;;;;;;7.94;100.00;99585.03;1693431;84;20999;-83
2022/11/04 10:40:54;;;;;;;;;;;;;;;7.93;100.00;99585.46;1693377;84;21217;-82
2022/11/04 10:43:27;;;;;;;;;;;;;;;7.95;100.00;99572.33;1693294;84;20202;-85
2022/11/04 10:45:57;;;;;;;;;;;;;;;8.03;100.00;99572.16;1693270;84;20479;-83
2022/11/04 10:48:30;;;;;;;;;;;;;;;8.08;100.00;99566.37;1692610;84;20190;-85
2022/11/04 10:50:58;;;;;;;;;;;;;;;8.11;100.00;99564.53;1692850;84;20191;-84
2022/11/04 10:53:28;;;;;;;;;;;;;;;8.16;100.00;99565.28;1693414;84;21154;-82
2022/11/04 10:56:13;;;;;;;;;;;;;;;8.19;100.00;99566.98;1693388;84;20221;-86
2022/11/04 10:58:44;;;;;;;;;;;;;;;8.19;100.00;99563.91;1693377;84;20155;-85
2022/11/04 11:01:29;;;;;;;;;;;;;;;8.23;100.00;99564.69;1693582;84;20590;-82
2022/11/04 11:03:56;;;;;;;;;;;;;;;8.28;100.00;99560.65;1692419;84;20222;-84
2022/11/04 11:06:29;;;;;;;;;;;;;;;8.31;100.00;99555.34;1693402;84;21175;-84
2022/11/04 11:08:58;;;;;;;;;;;;;;;8.29;100.00;99552.75;1693344;83;20241;-84
2022/11/04 11:11:49;;;;;;;;;;;;;;;8.28;99.93;99556.26;1691085;84;20344;-82
2022/11/04 11:14:30;;;;;;;;;;;;;;;8.30;100.00;99549.67;1693390;84;20489;-81
2022/11/04 11:16:59;;;;;;;;;;;;;;;8.31;99.79;99547.47;1693570;84;20099;-84
2022/11/04 11:19:26;;;;;;;;;;;;;;;8.32;99.97;99545.24;1672011;84;21204;-84
2022/11/04 11:21:54;;;;;;;;;;;;;;;8.37;100.00;99545.98;1693840;84;20193;-78
2022/11/04 11:24:22;;;;;;;;;;;;;;;8.43;100.00;99545.02;1693556;84;20210;-85
2022/11/04 11:26:49;;;;;;;;;;;;;;;8.47;99.93;99546.23;1693630;84;20178;-86
2022/11/04 11:29:24;;;;;;;;;;;;;;;8.49;99.88;99540.48;1671400;84;20561;-83
2022/11/04 11:31:50;;;;;;;;;;;;;;;8.52;99.57;99543.03;1659223;86;21146;-85
2022/11/04 11:34:25;;;;;;;;;;;;;;;8.52;99.00;99545.66;1659365;86;20219;-84
2022/11/04 11:36:54;;;;;;;;;;;;;;;8.52;98.84;99544.34;1659072;85;20202;-83
2022/11/04 11:39:21;;;;;;;;;;;;;;;8.51;98.78;99542.61;1659809;86;20241;-84
2022/11/04 11:41:55;;;;;;;;;;;;;;;8.48;98.80;99543.99;1659460;84;20540;-84
2022/11/04 11:44:26;;;;;;;;;;;;;;;8.46;98.54;99537.94;1659376;86;21141;-84
2022/11/04 11:46:54;;;;;;;;;;;;;;;8.44;98.58;99539.74;1659638;84;20678;-84
2022/11/04 11:49:23;;;;;;;;;;;;;;;8.42;98.86;99541.48;1658984;86;20606;-83
2022/11/04 11:51:50;;;;;;;;;;;;;;;8.44;99.12;99543.67;1655531;86;20215;-82
2022/11/04 11:54:21;;;;;;;;;;;;;;;8.44;98.85;99539.74;1659211;86;20211;-85
2022/11/04 11:56:53;;;;;;;;;;;;;;;8.47;98.89;99540.98;1659091;86;21140;-85
2022/11/04 11:59:45;;;;;;;;;;;;;;;8.47;98.81;99536.16;1659199;86;20204;-84
2022/11/04 12:02:49;;;;;;;;;;;;;;;8.45;98.42;99541.45;1643331;85;20208;-87
2022/11/04 12:05:18;;;;;;;;;;;;;;;8.43;98.38;99532.77;1659300;84;20219;-87
2022/11/04 12:07:48;;;;;;;;;;;;;;;8.43;98.34;99530.14;1658931;86;20189;-87
2022/11/04 12:10:43;;;;;;;;;;;;;;;8.44;98.29;99531.88;1658708;86;21144;-88
2022/11/04 12:13:18;;;;;;;;;;;;;;;8.44;97.84;99533.62;1659749;84;20175;-83
2022/11/04 12:15:56;;;;;;;;;;;;;;;8.42;97.44;99536.24;1659259;86;20214;-85
2022/11/04 12:18:45;;;;;;;;;;;;;;;8.40;97.44;99530.18;1658278;86;20226;-84
2022/11/04 12:21:20;;;;;;;;;;;;;;;8.37;97.22;99533.77;1658905;86;20203;-85
2022/11/04 12:24:12;;;;;;;;;;;;;;;8.34;96.85;99529.05;1659559;86;20744;-81
2022/11/04 12:27:01;;;;;;;;;;;;;;;8.32;96.94;99534.76;1659185;86;20644;-83
2022/11/04 12:29:48;;;;;;;;;;;;;;;8.28;96.56;99525.27;1675358;84;20241;-82
2022/11/04 12:32:28;;;;;;;;;;;;;;;8.28;96.83;99522.64;1694323;83;20188;-84
2022/11/04 12:35:15;;;;;;;;;;;;;;;8.32;96.89;99526.89;1695674;84;20208;-82
2022/11/04 12:38:04;;;;;;;;;;;;;;;8.39;96.91;99520.61;1695578;84;21154;-84
2022/11/04 12:40:46;;;;;;;;;;;;;;;8.47;96.85;99523.94;1695496;84;20176;-81
2022/11/04 12:43:25;;;;;;;;;;;;;;;8.54;96.92;99526.80;1667158;84;20232;-83
2022/11/04 12:46:10;;;;;;;;;;;;;;;8.61;96.71;99524.00;1695596;84;20184;-83
2022/11/04 12:48:49;;;;;;;;;;;;;;;8.66;96.38;99524.77;1695440;84;20224;-84
2022/11/04 12:51:35;;;;;;;;;;;;;;;8.69;95.88;99527.28;1695461;84;21162;-82
2022/11/04 12:54:14;;;;;;;;;;;;;;;8.70;95.69;99527.70;1677968;83;20203;-84
2022/11/04 12:56:41;;;;;;;;;;;;;;;8.68;95.11;99528.20;1678968;83;20149;-80
2022/11/04 12:59:30;;;;;;;;;;;;;;;8.63;94.52;99531.40;1695420;84;20646;-86
2022/11/04 13:01:59;;;;;;;;;;;;;;;8.58;94.07;99538.53;1695631;84;20271;-82
2022/11/04 13:04:30;;;;;;;;;;;;;;;8.52;94.13;99544.34;1695471;82;21758;-84
2022/11/04 13:07:04;;;;;;;;;;;;;;;8.49;94.15;99536.98;1695696;84;20204;-84
2022/11/04 13:09:45;;;;;;;;;;;;;;;8.46;94.23;99539.25;1695288;84;20145;-84
2022/11/04 13:12:26;;;;;;;;;;;;;;;8.46;94.40;99545.80;1695315;84;20834;-84
2022/11/04 13:14:56;;;;;;;;;;;;;;;8.45;94.76;99538.83;1695453;84;20204;-83
2022/11/04 13:17:28;;;;;;;;;;;;;;;8.49;95.12;99543.11;1695315;84;22243;-83
2022/11/04 13:19:57;;;;;;;;;;;;;;;8.54;95.31;99537.30;1695427;84;20236;-80
2022/11/04 13:22:25;;;;;;;;;;;;;;;8.62;95.36;99537.53;1696939;82;20164;-78
2022/11/04 13:24:56;;;;;;;;;;;;;;;8.63;94.87;99536.19;1677959;81;20302;-80
2022/11/04 13:27:32;;;;;;;;;;;;;;;8.60;94.05;99536.72;1700042;82;20204;-81
2022/11/04 13:30:24;;;;;;;;;;;;;;;8.53;93.88;99534.25;1697580;83;21120;-81
2022/11/04 13:33:00;;;;;;;;;;;;;;;8.50;93.89;99538.25;1711291;84;20134;-84